Terminal Aerodrome Forecast
Issued by NWS Grand Forks, ND

Home | Current Version | Previous Version | Text Only | Print | Product List | Glossary On
Versions: 1 2 3 4 5 6 7 8 9 10 11 12 13 14 15 16 17
838
FTUS43 KFGF 081519 AAA
TAFGFK
TAF AMD
KGFK 081519Z 0815/0912 32016G25KT 2SM -SN BLSN OVC015
      TEMPO 0815/0818 5SM -SN OVC040
     FM081800 32014KT P6SM OVC035
      TEMPO 0818/0820 OVC015
     FM090400 31009KT P6SM BKN035=

USA.gov is the U.S. government's official web portal to all federal, state and local government web resources and services.